Time;durP1;ratioP1;P1;durP2;ratioP2;P2;SDS_P1;SDS_P2;PMS_P1;PMS_P2;Temp;Humidity;BMP_temperature;BMP_pressure;BME280_temperature;BME280_humidity;BME280_pressure;Samples;Min_cycle;Max_cycle;Signal;HPM_P1;HPM_P2
2021/07/01 00:00:01;;;;;;;3.53;1.70;;;14.60;99.90;;;;;;6124538;23;20419;-89
2021/07/01 00:02:28;;;;;;;1.27;1.00;;;14.70;99.90;;;;;;6123957;23;20734;-89
2021/07/01 00:04:56;;;;;;;3.10;1.20;;;14.60;99.90;;;;;;6136595;23;20410;-88
2021/07/01 00:07:22;;;;;;;1.83;1.03;;;14.60;99.90;;;;;;6143490;23;20441;-89
2021/07/01 00:09:49;;;;;;;1.80;1.30;;;14.60;99.90;;;;;;6125784;23;20415;-89
2021/07/01 00:12:16;;;;;;;1.67;1.03;;;14.60;99.90;;;;;;6125581;23;20753;-89
2021/07/01 00:14:43;;;;;;;2.30;1.23;;;14.60;99.90;;;;;;6132515;23;20958;-89
2021/07/01 00:17:09;;;;;;;1.93;1.10;;;14.60;99.90;;;;;;6124963;23;20431;-90
2021/07/01 00:19:36;;;;;;;1.50;1.37;;;14.60;99.90;;;;;;6125567;23;20735;-90
2021/07/01 00:22:05;;;;;;;1.63;0.80;;;14.60;99.90;;;;;;6125712;23;20415;-89
2021/07/01 00:24:32;;;;;;;1.00;0.90;;;14.60;99.90;;;;;;6125046;23;20918;-89
2021/07/01 00:26:58;;;;;;;2.80;1.27;;;14.60;99.90;;;;;;6124455;23;20427;-90
2021/07/01 00:29:25;;;;;;;1.50;0.97;;;14.60;99.90;;;;;;6124384;23;20751;-90
2021/07/01 00:31:52;;;;;;;1.23;0.80;;;14.60;99.90;;;;;;6124886;23;20408;-88
2021/07/01 00:34:19;;;;;;;1.37;0.97;;;14.60;99.90;;;;;;6124367;23;20462;-90
2021/07/01 00:36:45;;;;;;;2.03;1.20;;;14.60;99.90;;;;;;6133493;23;20958;-90
2021/07/01 00:39:13;;;;;;;1.03;0.90;;;14.60;99.90;;;;;;6130378;23;20913;-90
2021/07/01 00:41:41;;;;;;;1.60;1.10;;;14.70;99.90;;;;;;6127339;23;20411;-90
2021/07/01 00:44:08;;;;;;;1.20;1.10;;;14.70;99.90;;;;;;6128580;23;20404;-89
2021/07/01 00:46:34;;;;;;;1.90;1.00;;;14.70;99.90;;;;;;6128275;23;20419;-89
2021/07/01 00:49:02;;;;;;;1.20;0.80;;;14.70;99.90;;;;;;6127563;23;20406;-90
2021/07/01 00:51:37;;;;;;;1.20;1.00;;;14.70;99.90;;;;;;6123831;23;20470;-91
2021/07/01 00:54:13;;;;;;;1.13;0.90;;;14.70;99.90;;;;;;6150963;23;20434;-93
2021/07/01 00:56:48;;;;;;;1.30;0.90;;;14.80;99.90;;;;;;6147784;23;20473;-91
2021/07/01 00:59:22;;;;;;;1.20;0.90;;;14.70;99.90;;;;;;6137037;23;20417;-92
2021/07/01 01:01:52;;;;;;;1.10;0.80;;;14.70;99.90;;;;;;6132314;23;20491;-93
2021/07/01 01:04:23;;;;;;;0.83;0.70;;;14.80;99.90;;;;;;6132997;23;20455;-92
2021/07/01 01:06:56;;;;;;;1.37;0.70;;;14.80;99.90;;;;;;6133461;23;20429;-92
2021/07/01 01:09:29;;;;;;;1.53;0.73;;;14.80;99.90;;;;;;6132790;23;20382;-93
2021/07/01 01:12:06;;;;;;;2.10;1.20;;;14.80;99.90;;;;;;6132149;23;20441;-92
2021/07/01 01:14:46;;;;;;;1.30;0.90;;;14.80;99.90;;;;;;6136148;23;20441;-92
2021/07/01 01:17:22;;;;;;;1.33;1.10;;;14.90;99.90;;;;;;6146261;23;20418;-92
2021/07/01 01:19:57;;;;;;;3.03;1.00;;;14.90;99.90;;;;;;6152284;23;20406;-93
2021/07/01 01:22:35;;;;;;;1.13;0.80;;;14.90;99.90;;;;;;6138049;23;20458;-92
2021/07/01 01:25:02;;;;;;;0.80;0.73;;;15.00;99.90;;;;;;6135165;23;20427;-93
2021/07/01 01:27:35;;;;;;;0.80;0.80;;;15.00;99.90;;;;;;6136120;23;20415;-94
2021/07/01 01:30:15;;;;;;;1.33;1.00;;;15.00;99.90;;;;;;6136808;23;20416;-93
2021/07/01 01:32:44;;;;;;;1.83;0.77;;;15.00;99.90;;;;;;6136314;23;20786;-92
2021/07/01 01:35:11;;;;;;;1.30;1.00;;;15.00;99.90;;;;;;6134465;23;20472;-92
2021/07/01 01:37:41;;;;;;;3.00;1.30;;;15.00;99.90;;;;;;6135584;23;20419;-92
2021/07/01 01:40:11;;;;;;;4.83;1.63;;;15.00;99.90;;;;;;6138093;23;20509;-92
2021/07/01 01:42:55;;;;;;;1.23;1.13;;;15.10;99.90;;;;;;6140331;23;20439;-92
2021/07/01 01:45:28;;;;;;;1.10;0.80;;;15.10;99.90;;;;;;6139288;23;20439;-93
2021/07/01 01:47:58;;;;;;;1.20;0.90;;;15.10;99.90;;;;;;6136997;23;20422;-91
2021/07/01 01:50:28;;;;;;;0.97;0.80;;;15.10;99.90;;;;;;6135518;23;20415;-91
2021/07/01 01:52:59;;;;;;;1.03;0.90;;;15.00;99.90;;;;;;6139026;23;20762;-85
2021/07/01 01:55:28;;;;;;;2.47;1.10;;;15.10;99.90;;;;;;6131807;23;20463;-84
2021/07/01 01:57:56;;;;;;;1.30;0.73;;;15.10;99.90;;;;;;6133239;23;20482;-83
2021/07/01 02:00:29;;;;;;;2.20;1.03;;;15.10;99.90;;;;;;6138414;23;20431;-83
2021/07/01 02:03:01;;;;;;;1.10;1.00;;;15.10;99.90;;;;;;6152477;23;20532;-84
2021/07/01 02:05:31;;;;;;;2.77;1.00;;;15.10;99.90;;;;;;6141013;23;20406;-84
2021/07/01 02:08:35;;;;;;;1.00;0.87;;;15.00;99.90;;;;;;6146362;23;20416;-84
2021/07/01 02:11:23;;;;;;;0.70;0.70;;;15.10;99.90;;;;;;6147284;23;20514;-84
2021/07/01 02:17:08;;;;;;;0.90;0.70;;;15.10;99.90;;;;;;6132580;23;20428;-84
2021/07/01 02:19:34;;;;;;;0.80;0.60;;;15.10;99.90;;;;;;6132929;23;20373;-84
2021/07/01 02:25:17;;;;;;;1.70;1.00;;;15.10;99.90;;;;;;6126054;23;20430;-85
2021/07/01 02:27:49;;;;;;;1.73;0.50;;;15.10;99.90;;;;;;6119033;23;20472;-82
2021/07/01 02:30:40;;;;;;;2.50;0.80;;;15.10;99.90;;;;;;6134587;23;20407;-83
2021/07/01 02:33:49;;;;;;;3.00;0.60;;;15.10;99.90;;;;;;6130988;23;20419;-83
2021/07/01 02:39:49;;;;;;;0.87;0.63;;;15.00;99.90;;;;;;6130068;23;20431;-83
2021/07/01 02:45:10;;;;;;;1.60;0.60;;;15.00;99.90;;;;;;6137476;23;20413;-83
2021/07/01 02:47:48;;;;;;;1.00;0.90;;;15.00;99.90;;;;;;6131401;23;20737;-83
2021/07/01 02:50:30;;;;;;;0.70;0.60;;;15.00;99.90;;;;;;6131186;23;20402;-91
2021/07/01 02:53:14;;;;;;;0.83;0.60;;;15.00;99.90;;;;;;6138071;23;20434;-91
2021/07/01 02:59:10;;;;;;;1.30;1.00;;;15.00;99.90;;;;;;6135702;23;20399;-92
2021/07/01 03:02:01;;;;;;;0.90;0.80;;;15.00;99.90;;;;;;6150109;23;20415;-92
2021/07/01 03:04:56;;;;;;;1.33;0.73;;;15.00;99.90;;;;;;6153210;23;20406;-91
2021/07/01 03:10:46;;;;;;;1.70;0.90;;;15.10;99.90;;;;;;6137957;23;20403;-92
2021/07/01 03:13:34;;;;;;;0.93;0.77;;;15.10;99.90;;;;;;6116672;23;20496;-93
2021/07/01 03:16:28;;;;;;;2.10;1.07;;;15.10;99.90;;;;;;6138217;23;20463;-92
2021/07/01 03:19:02;;;;;;;1.20;0.70;;;15.10;99.90;;;;;;6138714;23;20421;-92
2021/07/01 03:21:30;;;;;;;1.37;0.70;;;15.20;99.90;;;;;;6133214;23;20550;-93
2021/07/01 03:24:51;;;;;;;;;;;;;;;;;;;;;
2021/07/01 03:30:56;;;;;;;1.37;0.77;;;15.20;99.90;;;;;;6149959;23;20423;-87
2021/07/01 03:33:58;;;;;;;1.33;0.70;;;15.10;99.90;;;;;;6144159;23;20428;-91
2021/07/01 03:36:30;;;;;;;1.03;0.90;;;15.10;99.90;;;;;;6153673;23;20473;-90
2021/07/01 03:45:33;;;;;;;3.80;1.00;;;15.10;99.90;;;;;;6022032;23;20432;-91
2021/07/01 03:51:14;;;;;;;1.10;1.00;;;15.10;99.90;;;;;;6152911;23;20422;-90
2021/07/01 03:56:51;;;;;;;0.93;0.70;;;15.10;99.90;;;;;;6142055;23;20408;-91
2021/07/01 03:59:21;;;;;;;1.53;0.60;;;15.10;99.90;;;;;;6147395;23;20411;-91
2021/07/01 04:01:52;;;;;;;1.87;0.67;;;15.20;99.90;;;;;;6146013;23;20436;-91
2021/07/01 04:04:20;;;;;;;1.00;0.90;;;15.10;99.90;;;;;;6144271;23;20430;-92
2021/07/01 04:07:11;;;;;;;2.07;0.90;;;15.10;99.90;;;;;;6146067;23;20415;-91
2021/07/01 04:10:06;;;;;;;0.70;0.57;;;15.20;99.90;;;;;;6146163;23;20419;-91
2021/07/01 04:12:54;;;;;;;1.03;0.90;;;15.20;99.90;;;;;;6142377;23;20439;-92
2021/07/01 04:15:51;;;;;;;0.80;0.80;;;15.20;99.90;;;;;;6139342;23;20447;-92
2021/07/01 04:18:48;;;;;;;2.30;1.20;;;15.20;99.90;;;;;;6141545;23;20412;-92
2021/07/01 04:21:48;;;;;;;1.47;0.77;;;15.20;99.90;;;;;;6129343;23;20465;-92
2021/07/01 04:24:57;;;;;;;0.90;0.77;;;15.20;99.90;;;;;;6139424;23;20411;-92
2021/07/01 04:28:08;;;;;;;1.37;1.03;;;15.30;99.90;;;;;;6136208;23;20431;-92
2021/07/01 04:31:16;;;;;;;1.13;0.83;;;15.30;99.90;;;;;;6129016;23;20435;-93
2021/07/01 04:38:28;;;;;;;1.33;1.23;;;15.30;99.90;;;;;;5983500;23;20411;-92
2021/07/01 04:41:39;;;;;;;1.57;0.93;;;15.30;99.90;;;;;;6021137;23;20463;-93
2021/07/01 04:44:28;;;;;;;3.30;0.80;;;15.40;99.90;;;;;;6113598;23;20409;-92
2021/07/01 04:49:47;;;;;;;0.93;0.83;;;15.50;99.90;;;;;;6142378;23;20430;-94
2021/07/01 05:01:48;;;;;;;2.37;1.17;;;15.60;99.90;;;;;;6152918;23;20410;-89
2021/07/01 05:04:28;;;;;;;1.20;1.10;;;15.70;99.90;;;;;;6156552;23;20387;-90
2021/07/01 05:06:56;;;;;;;1.33;1.07;;;15.70;99.90;;;;;;6141955;23;20395;-89
2021/07/01 05:09:23;;;;;;;1.80;1.30;;;15.70;99.90;;;;;;6154092;23;20410;-89
2021/07/01 05:11:49;;;;;;;1.93;1.20;;;15.60;99.90;;;;;;6134610;23;20403;-90
2021/07/01 05:14:16;;;;;;;1.43;0.90;;;15.60;99.90;;;;;;6130827;23;20399;-90
2021/07/01 05:16:43;;;;;;;1.20;1.10;;;15.60;99.90;;;;;;6129575;23;20440;-89
2021/07/01 05:19:11;;;;;;;3.70;1.67;;;15.70;99.90;;;;;;6129046;23;20415;-89
2021/07/01 05:21:38;;;;;;;1.33;1.10;;;15.70;99.90;;;;;;6129231;23;20411;-90
2021/07/01 05:24:07;;;;;;;1.40;1.30;;;15.70;99.90;;;;;;6129630;23;20491;-90
2021/07/01 05:26:35;;;;;;;4.20;1.50;;;15.80;99.90;;;;;;6129490;23;20403;-90
2021/07/01 05:29:02;;;;;;;1.97;1.20;;;15.80;99.90;;;;;;6132973;23;20910;-89
2021/07/01 05:31:33;;;;;;;1.87;0.93;;;15.80;99.90;;;;;;6134363;23;20817;-90
2021/07/01 05:34:00;;;;;;;0.90;0.77;;;15.80;99.90;;;;;;6130934;23;20454;-88
2021/07/01 05:36:27;;;;;;;1.83;1.30;;;15.90;99.90;;;;;;6130247;23;20447;-89
2021/07/01 05:38:55;;;;;;;0.93;0.70;;;16.00;99.90;;;;;;6133386;23;20396;-88
2021/07/01 05:41:49;;;;;;;0.90;0.70;;;16.00;99.90;;;;;;6154179;23;20430;-88
2021/07/01 05:44:34;;;;;;;1.97;1.10;;;16.00;99.90;;;;;;6153161;23;20398;-88
2021/07/01 05:47:03;;;;;;;1.03;0.93;;;16.10;99.90;;;;;;6140600;23;20790;-88
2021/07/01 05:49:42;;;;;;;2.23;1.17;;;16.20;99.90;;;;;;6149919;23;20454;-89
2021/07/01 05:52:19;;;;;;;1.50;1.00;;;16.30;99.90;;;;;;6152000;23;20415;-90
2021/07/01 06:00:26;;;;;;;2.60;1.63;;;16.20;99.90;;;;;;6124131;23;20557;-89
2021/07/01 06:13:04;;;;;;;1.37;1.10;;;16.40;99.90;;;;;;6067477;23;20410;-90
2021/07/01 06:15:35;;;;;;;5.93;1.40;;;16.40;99.90;;;;;;6127948;23;20432;-90
2021/07/01 06:18:12;;;;;;;1.50;1.10;;;16.40;99.90;;;;;;6147503;23;20443;-90
2021/07/01 06:21:08;;;;;;;4.50;1.10;;;16.40;99.90;;;;;;6135231;23;20435;-89
2021/07/01 06:23:56;;;;;;;1.87;1.10;;;16.40;99.90;;;;;;6127632;23;20415;-89
2021/07/01 06:26:39;;;;;;;1.67;1.00;;;16.40;99.90;;;;;;6125989;23;20418;-89
2021/07/01 06:29:30;;;;;;;1.50;1.40;;;16.20;99.90;;;;;;6126566;23;20407;-89
2021/07/01 06:32:15;;;;;;;2.00;1.30;;;16.20;99.90;;;;;;6133848;23;20450;-90
2021/07/01 06:35:19;;;;;;;1.40;1.10;;;16.20;99.90;;;;;;6150611;23;20515;-88
2021/07/01 06:37:53;;;;;;;3.37;1.33;;;16.30;99.90;;;;;;6145212;23;20439;-90
2021/07/01 06:44:13;;;;;;;1.43;1.33;;;16.40;99.90;;;;;;6023525;23;20407;-90
2021/07/01 06:47:09;;;;;;;4.93;1.10;;;16.40;99.90;;;;;;6066064;23;20399;-89
2021/07/01 06:53:38;;;;;;;2.00;1.80;;;16.40;99.90;;;;;;6098505;23;21006;-90
2021/07/01 06:56:48;;;;;;;2.50;1.30;;;16.50;99.90;;;;;;6130168;23;20487;-89
2021/07/01 07:06:32;;;;;;;4.73;2.47;;;16.60;99.90;;;;;;6134549;23;20412;-90
2021/07/01 07:13:42;;;;;;;2.47;1.77;;;16.70;99.90;;;;;;6076932;23;20416;-90
2021/07/01 07:17:14;;;;;;;1.80;1.70;;;16.70;99.90;;;;;;6124183;23;20448;-89
2021/07/01 07:20:24;;;;;;;2.53;1.97;;;16.60;99.90;;;;;;6036747;23;20525;-89
2021/07/01 07:27:19;;;;;;;;;;;;;;;;;;;;;
2021/07/01 07:40:00;;;;;;;;;;;;;;;;;;;;;
2021/07/01 07:42:30;;;;;;;3.00;2.17;;;17.40;99.90;;;;;;5945952;23;20497;-90
2021/07/01 07:48:48;;;;;;;3.10;2.50;;;17.80;99.90;;;;;;6094962;23;20419;-90
2021/07/01 07:55:16;;;;;;;3.20;2.20;;;18.20;99.90;;;;;;6095925;23;20444;-89
2021/07/01 07:58:41;;;;;;;2.80;2.00;;;18.30;99.90;;;;;;6072208;23;20423;-88
2021/07/01 08:01:18;;;;;;;4.13;2.33;;;18.60;99.90;;;;;;6099473;23;20531;-89
2021/07/01 08:04:18;;;;;;;4.20;2.27;;;19.00;99.90;;;;;;6127723;23;20384;-89
2021/07/01 08:06:47;;;;;;;2.43;2.20;;;19.10;99.90;;;;;;6137047;23;20418;-88
2021/07/01 08:10:09;;;;;;;;;;;;;;;;;;;;;
2021/07/01 08:16:27;;;;;;;2.40;2.20;;;19.10;99.90;;;;;;6126812;23;20445;-88
2021/07/01 08:19:22;;;;;;;2.50;2.30;;;18.80;99.90;;;;;;6149084;23;20446;-90
2021/07/01 08:22:06;;;;;;;3.47;2.07;;;18.70;99.90;;;;;;6134453;23;20470;-89
2021/07/01 08:24:52;;;;;;;2.87;2.67;;;18.70;99.90;;;;;;6139076;23;20428;-89
2021/07/01 08:27:41;;;;;;;2.37;2.17;;;18.70;99.90;;;;;;6137209;23;20778;-89
2021/07/01 08:33:04;;;;;;;5.10;2.37;;;18.60;99.90;;;;;;6127547;23;20427;-89
2021/07/01 08:35:37;;;;;;;3.57;2.53;;;18.80;99.90;;;;;;6126368;23;21120;-90
2021/07/01 08:38:34;;;;;;;6.10;4.80;;;19.20;99.90;;;;;;6133537;23;20440;-89
2021/07/01 08:41:29;;;;;;;4.23;3.63;;;19.40;99.90;;;;;;6153094;23;20492;-89
2021/07/01 08:44:31;;;;;;;2.33;2.23;;;19.70;99.90;;;;;;6130810;23;20416;-89
2021/07/01 08:47:12;;;;;;;2.70;2.50;;;20.00;99.90;;;;;;6140306;23;20413;-89
2021/07/01 08:49:51;;;;;;;2.20;2.00;;;20.30;99.90;;;;;;6134756;23;20409;-90
2021/07/01 08:52:28;;;;;;;3.83;3.00;;;20.40;99.90;;;;;;6129714;23;20410;-89
2021/07/01 08:55:01;;;;;;;3.27;3.03;;;20.40;99.90;;;;;;6130557;23;20434;-89
2021/07/01 08:57:38;;;;;;;3.30;2.43;;;20.10;99.90;;;;;;6126814;23;20452;-89
2021/07/01 09:00:10;;;;;;;2.40;2.20;;;19.80;99.90;;;;;;6126048;23;20805;-89
2021/07/01 09:03:25;;;;;;;2.57;2.17;;;19.60;99.90;;;;;;6126196;23;20403;-89
2021/07/01 09:05:56;;;;;;;3.97;2.70;;;19.60;99.90;;;;;;6092189;23;20453;-90
2021/07/01 09:08:33;;;;;;;3.87;2.47;;;19.70;99.90;;;;;;6127766;23;21115;-88
2021/07/01 09:18:37;;;;;;;2.73;2.53;;;20.60;99.90;;;;;;6045630;23;20412;-88
2021/07/01 09:21:51;;;;;;;3.00;2.70;;;21.10;99.60;;;;;;6067540;23;20438;-89
2021/07/01 09:28:33;;;;;;;2.73;2.53;;;20.70;98.40;;;;;;6082951;23;20419;-85
2021/07/01 09:31:00;;;;;;;2.97;2.57;;;20.30;99.40;;;;;;6142079;23;20434;-87
2021/07/01 09:33:27;;;;;;;2.50;2.30;;;20.30;99.90;;;;;;6143534;23;20465;-86
2021/07/01 09:35:55;;;;;;;3.33;3.03;;;20.20;99.90;;;;;;6143787;23;20469;-86
2021/07/01 09:38:22;;;;;;;3.00;2.80;;;20.00;99.90;;;;;;6138668;23;20404;-86
2021/07/01 09:40:49;;;;;;;3.33;2.90;;;20.00;99.50;;;;;;6128504;23;21026;-86
2021/07/01 09:43:20;;;;;;;3.50;2.87;;;20.20;99.50;;;;;;6129084;23;20474;-86
2021/07/01 09:45:51;;;;;;;3.00;2.43;;;20.20;99.00;;;;;;6128441;23;20403;-85
2021/07/01 09:48:19;;;;;;;3.77;3.40;;;20.30;98.70;;;;;;6127832;23;20397;-86
2021/07/01 09:50:48;;;;;;;2.63;2.43;;;20.40;97.70;;;;;;6129628;23;20497;-85
2021/07/01 09:53:25;;;;;;;3.47;3.17;;;20.60;97.70;;;;;;6130067;23;20410;-85
2021/07/01 09:55:54;;;;;;;3.63;2.90;;;20.70;97.60;;;;;;6127256;23;20397;-85
2021/07/01 09:58:21;;;;;;;2.87;2.40;;;20.80;97.10;;;;;;6128107;23;20412;-86
2021/07/01 10:00:51;;;;;;;3.90;2.97;;;20.90;97.00;;;;;;6151132;23;20441;-84
2021/07/01 10:03:17;;;;;;;5.00;3.53;;;20.80;97.20;;;;;;6148228;23;20466;-86
2021/07/01 10:05:44;;;;;;;3.57;3.27;;;20.80;98.30;;;;;;6130226;23;20386;-86
2021/07/01 10:08:11;;;;;;;4.87;3.07;;;20.90;97.30;;;;;;6129515;23;20404;-86
2021/07/01 10:10:46;;;;;;;3.07;2.87;;;21.00;97.70;;;;;;6131001;23;20436;-88
2021/07/01 10:13:13;;;;;;;3.30;3.00;;;20.80;97.40;;;;;;6146871;23;20480;-88
2021/07/01 10:15:43;;;;;;;6.43;3.40;;;20.50;97.80;;;;;;6138456;23;20445;-87
2021/07/01 10:18:15;;;;;;;2.93;2.73;;;20.20;98.30;;;;;;6132980;23;20441;-87
2021/07/01 10:20:45;;;;;;;4.10;3.23;;;20.00;99.00;;;;;;6137414;23;20440;-90
2021/07/01 10:23:22;;;;;;;3.00;2.40;;;19.80;99.40;;;;;;6142251;23;20418;-89
2021/07/01 10:25:51;;;;;;;5.70;5.13;;;19.40;99.00;;;;;;6130987;23;20898;-87
2021/07/01 10:28:21;;;;;;;3.40;3.10;;;19.20;99.90;;;;;;6127217;23;20580;-88
2021/07/01 10:31:00;;;;;;;9.00;5.13;;;19.00;99.90;;;;;;6132734;23;20439;-88
2021/07/01 10:33:31;;;;;;;4.20;3.50;;;19.10;99.90;;;;;;6154225;23;20400;-88
2021/07/01 10:36:01;;;;;;;7.20;5.70;;;19.20;99.90;;;;;;6147102;23;20427;-89
2021/07/01 10:38:28;;;;;;;5.43;4.93;;;19.30;99.90;;;;;;6141318;23;20400;-89
2021/07/01 10:40:59;;;;;;;3.70;3.30;;;19.30;99.90;;;;;;6154013;23;20420;-88
2021/07/01 10:43:40;;;;;;;3.93;2.83;;;19.20;99.90;;;;;;6138129;23;20716;-88
2021/07/01 10:46:09;;;;;;;4.23;2.93;;;19.10;99.90;;;;;;6145554;23;20422;-88
2021/07/01 10:48:39;;;;;;;3.60;2.90;;;19.00;99.90;;;;;;6144321;23;20447;-88
2021/07/01 10:51:09;;;;;;;3.90;2.30;;;18.80;99.90;;;;;;6128272;23;20443;-88
2021/07/01 10:53:39;;;;;;;3.53;2.50;;;18.50;99.90;;;;;;6128865;23;20426;-87
2021/07/01 10:56:09;;;;;;;2.57;2.37;;;18.20;99.90;;;;;;6128526;23;20478;-87
2021/07/01 10:58:36;;;;;;;2.10;1.97;;;17.90;99.90;;;;;;6127713;23;20510;-88
2021/07/01 11:01:06;;;;;;;2.70;2.50;;;17.60;99.90;;;;;;6127972;23;20445;-88
2021/07/01 11:03:35;;;;;;;7.10;6.40;;;17.50;99.90;;;;;;6128433;23;20381;-89
2021/07/01 11:06:14;;;;;;;4.80;4.30;;;17.30;99.90;;;;;;6127878;23;20441;-88
2021/07/01 11:08:43;;;;;;;3.90;3.60;;;17.30;99.90;;;;;;6128868;23;20467;-88
2021/07/01 11:11:21;;;;;;;2.60;2.20;;;17.20;99.90;;;;;;6134512;23;20451;-87
2021/07/01 11:13:55;;;;;;;3.27;2.97;;;17.20;99.90;;;;;;6130247;23;20803;-87
2021/07/01 11:16:33;;;;;;;5.97;5.37;;;17.30;99.90;;;;;;6128051;23;20426;-87
2021/07/01 11:19:01;;;;;;;9.70;7.33;;;17.40;99.90;;;;;;6127561;23;20424;-88
2021/07/01 11:21:31;;;;;;;8.83;6.20;;;17.50;99.90;;;;;;6128225;23;20489;-88
2021/07/01 11:24:15;;;;;;;7.27;6.10;;;17.40;99.90;;;;;;6133651;23;20853;-87
2021/07/01 11:26:45;;;;;;;6.67;3.80;;;17.40;99.90;;;;;;6132427;23;20426;-88
2021/07/01 11:29:13;;;;;;;3.73;3.43;;;17.40;99.90;;;;;;6128190;23;20505;-87
2021/07/01 11:31:44;;;;;;;3.60;3.20;;;17.40;99.90;;;;;;6129373;23;20422;-88
2021/07/01 11:34:16;;;;;;;3.47;2.97;;;17.40;99.90;;;;;;6131671;23;20746;-88
2021/07/01 11:36:51;;;;;;;4.37;3.97;;;17.60;99.90;;;;;;6130985;23;20439;-88
2021/07/01 11:39:27;;;;;;;4.10;3.70;;;17.70;99.90;;;;;;6148204;23;20419;-88
2021/07/01 11:41:55;;;;;;;5.43;4.90;;;17.80;99.90;;;;;;6130864;23;20413;-88
2021/07/01 11:44:28;;;;;;;4.57;4.03;;;18.00;99.90;;;;;;6147289;23;20417;-86
2021/07/01 11:46:55;;;;;;;3.83;3.53;;;18.10;99.90;;;;;;6150768;23;20441;-87
2021/07/01 11:49:23;;;;;;;2.90;2.70;;;18.20;99.90;;;;;;6130662;23;20458;-88
2021/07/01 11:51:52;;;;;;;3.43;3.20;;;18.30;99.90;;;;;;6128778;23;20751;-88
2021/07/01 11:54:22;;;;;;;4.50;3.03;;;18.40;99.90;;;;;;6128695;23;20405;-88
2021/07/01 11:56:54;;;;;;;3.37;3.07;;;18.50;99.90;;;;;;6137403;23;20436;-88
2021/07/01 11:59:23;;;;;;;3.93;3.17;;;18.70;99.90;;;;;;6130620;23;20813;-90
2021/07/01 12:01:50;;;;;;;2.70;2.50;;;18.80;99.90;;;;;;6129992;23;20418;-89
2021/07/01 12:04:22;;;;;;;4.40;3.20;;;19.00;99.90;;;;;;6130043;23;20394;-89
2021/07/01 12:07:41;;;;;;;5.40;4.40;;;19.10;99.90;;;;;;6129847;23;20494;-89
2021/07/01 12:48:43;;;;;;;4.23;3.83;;;21.00;97.50;;;;;;5976374;23;20792;-85
2021/07/01 12:52:08;;;;;;;5.77;4.43;;;21.00;97.40;;;;;;6039032;23;20465;-85
2021/07/01 12:54:55;;;;;;;6.30;5.57;;;21.20;97.20;;;;;;6036558;23;20421;-83
2021/07/01 12:57:22;;;;;;;4.57;3.97;;;21.50;96.70;;;;;;6122891;23;20431;-84
2021/07/01 12:59:50;;;;;;;5.00;3.87;;;21.60;96.30;;;;;;6126220;23;20434;-84
2021/07/01 13:02:23;;;;;;;5.37;4.10;;;21.90;96.20;;;;;;6128246;23;20408;-82
2021/07/01 13:04:52;;;;;;;5.20;4.50;;;22.10;95.30;;;;;;6142041;23;20412;-83
2021/07/01 13:07:21;;;;;;;4.60;4.20;;;22.20;94.80;;;;;;6127452;23;20407;-84
2021/07/01 13:09:49;;;;;;;4.93;4.43;;;22.20;95.10;;;;;;6127959;23;20436;-85
2021/07/01 13:12:29;;;;;;;5.80;4.00;;;22.10;94.60;;;;;;6128584;23;20801;-84
2021/07/01 13:14:56;;;;;;;6.70;6.00;;;22.10;94.00;;;;;;6129690;23;20401;-83
2021/07/01 13:17:28;;;;;;;6.20;5.60;;;21.90;93.40;;;;;;6129006;23;20534;-83
2021/07/01 13:19:57;;;;;;;5.63;4.13;;;22.20;93.70;;;;;;6129270;23;20440;-83
2021/07/01 13:22:27;;;;;;;5.73;5.23;;;23.30;93.30;;;;;;6127758;23;20757;-84
2021/07/01 13:24:57;;;;;;;4.70;4.13;;;24.00;91.50;;;;;;6130016;23;20428;-83
2021/07/01 13:27:37;;;;;;;3.73;3.43;;;23.70;90.00;;;;;;6140651;23;20394;-84
2021/07/01 13:30:08;;;;;;;4.90;4.50;;;23.20;90.40;;;;;;6145109;23;20428;-84
2021/07/01 13:32:35;;;;;;;5.27;4.53;;;22.60;92.00;;;;;;6144164;23;20389;-82
2021/07/01 13:35:04;;;;;;;6.73;6.13;;;22.00;93.10;;;;;;6133040;23;20447;-82
2021/07/01 13:37:33;;;;;;;6.50;5.43;;;21.60;93.50;;;;;;6136374;23;20979;-82
2021/07/01 13:40:14;;;;;;;6.93;6.23;;;21.30;94.40;;;;;;6133651;23;20416;-82
2021/07/01 13:42:41;;;;;;;7.20;5.40;;;21.10;95.10;;;;;;6132257;23;20402;-84
2021/07/01 13:45:10;;;;;;;6.27;5.43;;;20.70;95.00;;;;;;6131645;23;20915;-83
2021/07/01 13:47:43;;;;;;;12.10;5.50;;;20.40;95.80;;;;;;6131578;23;20410;-84
2021/07/01 13:50:18;;;;;;;5.90;4.63;;;20.40;95.90;;;;;;6129168;23;20424;-83
2021/07/01 13:52:51;;;;;;;6.37;5.87;;;20.40;95.20;;;;;;6128985;23;20470;-90
2021/07/01 13:55:27;;;;;;;6.57;5.13;;;20.50;94.50;;;;;;6128889;23;20421;-88
2021/07/01 13:57:54;;;;;;;4.80;4.40;;;20.70;94.90;;;;;;6129742;23;20451;-89
2021/07/01 14:00:26;;;;;;;6.50;4.40;;;20.60;95.50;;;;;;6130455;23;20498;-88
2021/07/01 14:03:02;;;;;;;5.37;4.40;;;20.40;96.40;;;;;;6129619;23;20415;-88
2021/07/01 14:05:36;;;;;;;3.73;3.43;;;20.10;97.20;;;;;;6131316;23;20508;-87
2021/07/01 14:08:07;;;;;;;5.60;3.90;;;19.90;97.90;;;;;;6132181;23;20998;-87
2021/07/01 14:10:39;;;;;;;6.47;4.43;;;19.70;98.50;;;;;;6129088;23;20461;-87
2021/07/01 14:13:09;;;;;;;4.63;4.23;;;19.50;98.90;;;;;;6131241;23;20881;-82
2021/07/01 14:15:37;;;;;;;5.00;3.90;;;19.40;99.20;;;;;;6130111;23;20422;-83
2021/07/01 14:18:10;;;;;;;3.97;3.67;;;19.20;99.50;;;;;;6149892;23;20428;-90
2021/07/01 14:20:38;;;;;;;5.90;4.20;;;19.20;99.80;;;;;;6141362;23;20427;-89
2021/07/01 14:23:20;;;;;;;4.70;3.70;;;19.20;99.80;;;;;;6131684;23;20475;-88
2021/07/01 14:25:48;;;;;;;4.40;4.00;;;19.20;99.70;;;;;;6130356;23;20497;-89
2021/07/01 14:28:17;;;;;;;4.40;3.90;;;19.30;99.90;;;;;;6142802;23;20891;-87
2021/07/01 14:30:49;;;;;;;4.50;3.80;;;19.40;99.40;;;;;;6142236;23;20438;-88
2021/07/01 14:33:37;;;;;;;3.70;3.30;;;19.60;99.30;;;;;;6131314;23;20447;-89
2021/07/01 14:36:16;;;;;;;4.70;3.80;;;19.60;99.20;;;;;;6136492;23;20428;-89
2021/07/01 14:38:45;;;;;;;6.60;4.30;;;19.40;99.90;;;;;;6133934;23;20807;-89
2021/07/01 14:41:14;;;;;;;4.30;3.90;;;19.30;99.60;;;;;;6131507;23;20443;-89
2021/07/01 14:43:44;;;;;;;4.50;3.70;;;19.30;99.90;;;;;;6130548;23;20942;-89
2021/07/01 14:46:22;;;;;;;4.83;4.40;;;19.40;99.90;;;;;;6130781;23;20460;-89
2021/07/01 14:48:51;;;;;;;5.00;4.20;;;19.50;99.90;;;;;;6135992;23;20413;-89
2021/07/01 14:51:24;;;;;;;6.53;4.80;;;19.50;99.90;;;;;;6152514;23;20457;-89
2021/07/01 14:54:09;;;;;;;4.37;3.97;;;19.60;99.90;;;;;;6130297;23;20455;-89
2021/07/01 14:56:57;;;;;;;6.27;4.80;;;19.60;99.80;;;;;;6138233;23;20832;-88
2021/07/01 14:59:57;;;;;;;5.00;3.93;;;19.60;99.90;;;;;;6143380;23;20769;-88
2021/07/01 15:02:33;;;;;;;5.20;4.80;;;19.50;99.70;;;;;;6114648;23;20417;-88
2021/07/01 15:05:09;;;;;;;4.70;4.30;;;19.40;99.90;;;;;;6130753;23;20432;-87
2021/07/01 15:08:02;;;;;;;4.20;3.80;;;19.60;99.90;;;;;;6131943;23;20395;-86
2021/07/01 15:10:32;;;;;;;8.20;4.20;;;19.60;99.90;;;;;;6151319;23;20446;-89
2021/07/01 15:13:05;;;;;;;5.63;4.30;;;19.70;99.90;;;;;;6142914;23;20872;-88
2021/07/01 15:15:48;;;;;;;4.93;4.00;;;19.90;99.90;;;;;;6130648;23;20404;-88
2021/07/01 15:18:37;;;;;;;4.97;3.67;;;20.00;99.70;;;;;;6133768;23;20440;-90
2021/07/01 15:21:16;;;;;;;6.47;4.33;;;20.00;99.80;;;;;;6135034;23;20836;-90
2021/07/01 15:26:49;;;;;;;4.30;3.90;;;19.90;98.90;;;;;;6040731;23;20416;-89
2021/07/01 15:29:40;;;;;;;4.50;4.10;;;19.80;99.10;;;;;;6129942;23;20430;-87
2021/07/01 15:32:19;;;;;;;3.93;3.57;;;19.70;99.20;;;;;;6136226;23;20394;-89
2021/07/01 15:34:45;;;;;;;6.17;4.20;;;19.60;99.40;;;;;;6142198;23;20393;-86
2021/07/01 15:37:12;;;;;;;5.93;4.90;;;19.50;99.50;;;;;;6139574;23;20408;-87
2021/07/01 15:39:39;;;;;;;4.80;4.40;;;19.40;99.70;;;;;;6140244;23;20503;-87
2021/07/01 15:42:18;;;;;;;5.47;4.40;;;19.30;99.90;;;;;;6138126;23;20537;-85
2021/07/01 15:44:50;;;;;;;4.90;4.40;;;19.20;99.70;;;;;;6136204;23;20726;-87
2021/07/01 15:47:26;;;;;;;5.13;4.60;;;19.10;99.30;;;;;;6131216;23;20413;-86
2021/07/01 15:49:56;;;;;;;5.93;3.83;;;19.10;99.30;;;;;;6132166;23;20466;-87
2021/07/01 15:52:26;;;;;;;4.50;4.10;;;19.10;99.20;;;;;;6140585;23;20404;-86
2021/07/01 15:55:06;;;;;;;4.93;3.97;;;19.10;98.70;;;;;;6144203;23;20419;-89
2021/07/01 15:57:52;;;;;;;5.90;4.30;;;19.10;98.50;;;;;;6136855;23;20430;-89
2021/07/01 16:00:30;;;;;;;5.50;5.00;;;19.10;98.70;;;;;;6132962;23;21023;-87
2021/07/01 16:03:30;;;;;;;5.53;4.50;;;19.10;99.00;;;;;;6131004;23;20875;-88
2021/07/01 16:06:05;;;;;;;5.13;4.20;;;19.20;98.90;;;;;;6084197;23;20422;-90
2021/07/01 16:33:28;;;;;;;9.97;5.50;;;18.90;99.30;;;;;;5861629;24;20425;-94
2021/07/01 16:36:19;;;;;;;4.77;4.37;;;18.80;99.70;;;;;;5987502;24;20978;-90
2021/07/01 16:38:46;;;;;;;6.60;5.40;;;18.90;99.30;;;;;;6062751;23;20442;-88
2021/07/01 16:41:13;;;;;;;4.70;4.17;;;18.90;99.00;;;;;;6099757;23;20439;-88
2021/07/01 16:43:41;;;;;;;4.80;4.07;;;18.90;98.50;;;;;;6100770;23;20420;-89
2021/07/01 16:46:09;;;;;;;5.77;4.83;;;18.80;98.70;;;;;;6098904;23;20409;-90
2021/07/01 16:49:00;;;;;;;5.43;4.93;;;18.80;98.20;;;;;;6097868;23;20420;-92
2021/07/01 17:07:05;;;;;;;5.23;4.47;;;19.10;97.70;;;;;;6039681;23;20456;-89